Portada
METAR-TAF:

METAR-TAF

Aeropuertos :

Aeropuerto Internacional Fua'amotu

Tongatapu, Tonga

latitud: 21-14S, longitud: 175-09W, altitud: 38 m

Observación

El informe se hizo hace 51 minutos, a las 00:00 UTC
Viento 10 kt del norte
Temperatura 29°C
Humedad 58%
Presión 1009 hPa
Visibilidad 10 km o más
Escasas nubes a una altura de 1800 ft, Cumulus congestus.

METAR: NFTF 190000Z 35010KT 9999 FEW018TCU 29/20 Q1009

Hora: 14:51 (00:51 UTC)

Pronóstico

El informe se hizo hace 1 hora y 50 minutos, a las 23:01 UTC
Pronóstico válido del 19 a las 00 UTC al 19 a las 24 UTC
Viento 8 kt del norte-noroeste
Visibilidad 10 km o más
Escasas nubes a una altura de 1800 ft
Cielo nuboso a una altura de 5000 ft
Probabilidad 30% :
Temporalmente
del 19 a las 02 UTC al 19 a las 05 UTC
Visibilidad: 5000 m
Cielo nuboso a una altura de 1500 ft
chaparrones de lluvia

TAF: NFTF 182301Z 1900/1924 34008KT 9999 FEW018 BKN050 PROB30 TEMPO 1902/1905 5000 SHRA BKN015

Observaciones y pronósticos meteorológicos de más de 4000 aeropuertos (mensajes METAR y TAF).

Los puntos amarillos y rojos representan las estaciones disponibles.

Ponga el ratón en el punto deseado para ver el nombre de la estación.

Haga clic para ver las observaciones y los pronósticos meteorológicos.

Para cambiar el mapa : haga clic en los botones verdes con una cruz de color negro para hacer un zoom, en el botón verde con un guión para alejar o en las flechas verdes para mapas adyacentes.


METAR-TAF: